Time;durP1;ratioP1;P1;durP2;ratioP2;P2;SDS_P1;SDS_P2;PMS_P1;PMS_P2;Temp;Humidity;BMP_temperature;BMP_pressure;BME280_temperature;BME280_humidity;BME280_pressure;Samples;Min_cycle;Max_cycle;Signal;HPM_P1;HPM_P2
2024/03/28 00:06:16;;;;;;;5.10;3.50;;;;;;;9.47;66.18;97174.06;447807;1238;139453;-64
2024/03/28 00:16:19;;;;;;;5.30;3.20;;;;;;;9.39;66.44;97171.54;444639;1238;5102415;-65
2024/03/28 00:26:23;;;;;;;5.30;3.40;;;;;;;9.31;66.92;97168.19;447953;1238;139318;-50
2024/03/28 00:36:26;;;;;;;4.00;3.00;;;;;;;9.26;67.33;97159.73;447920;1238;138939;-51
2024/03/28 00:46:29;;;;;;;4.50;4.10;;;;;;;9.24;67.78;97149.48;449120;1238;138711;-58
2024/03/28 00:56:32;;;;;;;7.80;3.60;;;;;;;9.19;68.07;97145.05;448542;1238;139151;-58
2024/03/28 01:06:36;;;;;;;4.30;2.80;;;;;;;9.14;68.69;97138.77;449292;1235;139037;-59
2024/03/28 01:16:39;;;;;;;4.70;3.50;;;;;;;9.10;69.06;97127.36;448498;1238;138759;-50
2024/03/28 01:26:42;;;;;;;4.20;3.00;;;;;;;9.09;69.74;97105.40;448054;1236;138668;-58
2024/03/28 01:36:45;;;;;;;4.90;3.90;;;;;;;9.17;70.19;97099.86;447941;1238;139092;-58
2024/03/28 01:46:51;;;;;;;6.00;3.20;;;;;;;9.30;70.56;97096.30;448154;1238;138778;-49
2024/03/28 01:57:15;;;;;;;4.00;3.60;;;;;;;9.44;70.84;97084.66;448139;1238;138819;-64
2024/03/28 02:07:18;;;;;;;3.10;2.30;;;;;;;9.52;70.87;97073.02;448086;1235;140017;-63
2024/03/28 02:17:23;;;;;;;4.00;3.10;;;;;;;9.57;71.13;97074.10;448393;1235;138842;-65
2024/03/28 02:27:26;;;;;;;4.60;3.50;;;;;;;9.59;71.26;97061.87;448094;1238;138630;-65
2024/03/28 02:37:32;;;;;;;4.90;3.20;;;;;;;9.62;71.51;97058.41;447998;1236;139143;-51
2024/03/28 02:47:36;;;;;;;7.00;4.00;;;;;;;9.69;71.66;97050.04;448542;1238;139020;-52
2024/03/28 02:57:39;;;;;;;5.20;2.80;;;;;;;9.79;71.83;97031.90;448439;1237;139035;-64
2024/03/28 03:07:43;;;;;;;9.70;3.50;;;;;;;9.90;71.96;97032.02;449309;1235;138633;-64
2024/03/28 03:17:46;;;;;;;4.90;2.60;;;;;;;10.02;71.99;97019.85;448653;1236;139250;-65
2024/03/28 03:38:15;;;;;;;10.40;3.80;;;;;;;10.28;71.95;97004.19;448025;1235;139014;-53
2024/03/28 03:48:18;;;;;;;7.00;2.90;;;;;;;10.34;71.96;96990.14;447620;1238;139644;-53
2024/03/28 03:58:21;;;;;;;6.30;3.60;;;;;;;10.34;71.92;96964.94;448016;1238;138819;-57
2024/03/28 04:08:25;;;;;;;12.00;4.30;;;;;;;10.38;72.18;96975.17;447960;1235;139408;-58
2024/03/28 04:18:30;;;;;;;9.10;4.00;;;;;;;10.41;72.23;96975.25;447929;1236;139019;-62
2024/03/28 04:28:34;;;;;;;6.90;3.60;;;;;;;10.45;72.58;96970.16;448561;1236;139427;-64
2024/03/28 04:38:37;;;;;;;6.80;3.20;;;;;;;10.53;72.77;96962.17;448120;1238;138811;-65
2024/03/28 04:48:41;;;;;;;12.50;4.30;;;;;;;10.64;73.06;96951.89;447073;1235;139559;-65
2024/03/28 04:58:44;;;;;;;14.50;4.20;;;;;;;10.75;73.16;96941.30;447258;1239;139246;-64
2024/03/28 05:08:48;;;;;;;19.20;6.10;;;;;;;10.86;73.30;96936.25;447132;1238;139962;-62
2024/03/28 05:18:52;;;;;;;9.50;4.60;;;;;;;11.06;73.46;96936.09;447333;1236;139027;-64
2024/03/28 05:28:55;;;;;;;21.80;5.70;;;;;;;11.27;73.27;96933.45;447529;1236;139383;-65
2024/03/28 05:39:03;;;;;;;13.00;5.90;;;;;;;11.48;73.04;96923.50;447038;1239;139883;-64
2024/03/28 05:49:08;;;;;;;18.00;6.50;;;;;;;11.61;72.63;96904.98;447469;1239;141963;-64
2024/03/28 05:59:14;;;;;;;14.90;6.60;;;;;;;11.57;72.54;96902.63;447108;1239;139410;-64
2024/03/28 06:09:19;;;;;;;26.20;9.70;;;;;;;11.59;72.52;96907.00;447582;1239;139697;-52
2024/03/28 06:19:22;;;;;;;19.60;9.10;;;;;;;11.56;72.54;96914.84;447400;1236;138958;-53
2024/03/28 06:29:25;;;;;;;23.80;8.30;;;;;;;11.61;72.72;96913.56;447502;1239;139594;-50
2024/03/28 06:39:29;;;;;;;19.70;6.00;;;;;;;11.69;72.53;96931.83;447334;1235;139991;-52
2024/03/28 06:49:32;;;;;;;18.50;7.50;;;;;;;11.66;72.91;96944.23;449318;1239;139389;-64
2024/03/28 06:59:36;;;;;;;16.10;7.00;;;;;;;11.67;73.86;96954.19;447566;1239;139189;-65
2024/03/28 07:09:39;;;;;;;23.30;8.60;;;;;;;11.66;75.03;96964.23;448027;1239;139229;-64
2024/03/28 07:19:42;;;;;;;21.90;8.70;;;;;;;11.66;76.11;96971.39;448240;1236;139018;-65
2024/03/28 07:29:46;;;;;;;21.90;8.50;;;;;;;11.79;77.37;96980.67;448122;1239;139816;-63
2024/03/28 07:39:50;;;;;;;26.80;10.40;;;;;;;12.01;78.46;96959.70;451437;1236;139557;-57
2024/03/28 07:49:56;;;;;;;29.00;8.70;;;;;;;12.34;79.10;96947.95;447883;1239;139314;-69
2024/03/28 07:59:59;;;;;;;19.10;7.80;;;;;;;12.51;79.11;96942.36;449832;1236;139417;-62
2024/03/28 08:10:04;;;;;;;22.30;7.30;;;;;;;12.44;79.21;96946.30;447941;1236;139595;-61
2024/03/28 08:20:15;;;;;;;25.70;9.20;;;;;;;12.32;79.84;96930.86;449365;1239;139178;-59
2024/03/28 08:30:19;;;;;;;24.30;8.60;;;;;;;12.29;80.62;96928.48;449545;1235;139253;-60
2024/03/28 08:40:22;;;;;;;28.70;9.60;;;;;;;12.33;81.82;96927.02;448980;1236;139850;-64
2024/03/28 08:50:26;;;;;;;22.60;9.20;;;;;;;12.52;82.62;96918.73;449469;1239;139287;-65
2024/03/28 09:00:31;;;;;;;26.70;10.90;;;;;;;12.97;82.99;96906.23;448100;1239;139558;-59
2024/03/28 09:10:35;;;;;;;28.90;10.30;;;;;;;13.61;82.21;96899.45;447840;1239;140552;-64
2024/03/28 09:20:39;;;;;;;22.80;8.40;;;;;;;14.27;81.08;96894.77;448579;1239;139483;-62
2024/03/28 09:30:42;;;;;;;20.80;9.30;;;;;;;14.45;78.71;96885.20;449499;1239;139647;-60
2024/03/28 09:40:52;;;;;;;17.70;8.00;;;;;;;14.51;78.14;96893.18;461872;1237;140137;-58
2024/03/28 09:50:56;;;;;;;27.40;8.50;;;;;;;14.82;76.77;96902.27;461838;1236;139592;-58
2024/03/28 10:00:59;;;;;;;27.10;9.80;;;;;;;15.03;75.49;96923.35;461986;1236;137783;-56
2024/03/28 10:11:05;;;;;;;26.00;7.90;;;;;;;15.04;74.69;96937.18;461908;1235;139038;-62
2024/03/28 10:21:11;;;;;;;21.10;8.40;;;;;;;15.31;74.20;96958.63;452319;1236;139595;-66
2024/03/28 10:31:24;;;;;;;16.90;7.20;;;;;;;15.49;73.49;96965.91;449376;1239;139685;-59
2024/03/28 10:41:29;;;;;;;21.10;6.40;;;;;;;16.00;72.97;96959.88;449476;1239;139894;-54
2024/03/28 10:51:35;;;;;;;17.10;6.00;;;;;;;16.95;71.86;96952.09;449502;1239;139578;-57
2024/03/28 11:01:38;;;;;;;10.70;5.10;;;;;;;17.62;69.74;96954.46;448869;1237;138959;-60
2024/03/28 11:11:42;;;;;;;11.40;3.90;;;;;;;17.36;67.28;96946.73;448701;1239;138654;-63
2024/03/28 11:21:53;;;;;;;6.80;3.30;;;;;;;16.97;65.87;96943.36;448910;1239;138712;-63
2024/03/28 11:31:57;;;;;;;4.70;2.70;;;;;;;16.58;65.11;96944.07;449482;1239;138296;-64
2024/03/28 11:42:01;;;;;;;4.10;1.90;;;;;;;16.39;64.46;96954.80;448914;1239;138742;-61
2024/03/28 11:52:08;;;;;;;3.40;1.50;;;;;;;15.69;63.83;96969.95;448464;1238;138707;-65
2024/03/28 12:02:12;;;;;;;7.20;2.40;;;;;;;15.32;63.98;96975.68;449162;1239;138220;-62
2024/03/28 12:12:15;;;;;;;1.90;1.00;;;;;;;15.65;64.65;96988.08;444967;1239;5080404;-69
2024/03/28 12:22:21;;;;;;;0.80;0.40;;;;;;;16.17;62.72;96981.55;448958;1239;139094;-56
2024/03/28 12:32:28;;;;;;;3.90;0.80;;;;;;;16.38;61.14;97008.05;449321;1239;138363;-62
2024/03/28 12:42:32;;;;;;;1.60;0.70;;;;;;;15.36;61.47;97046.29;448638;1239;139023;-55
2024/03/28 12:52:36;;;;;;;0.90;0.50;;;;;;;14.77;62.95;97079.89;447973;1239;138323;-57
2024/03/28 13:02:40;;;;;;;2.10;0.30;;;;;;;14.82;62.22;97093.02;447926;1239;138088;-62
2024/03/28 13:12:44;;;;;;;0.30;0.20;;;;;;;14.00;61.66;97109.33;447831;1239;139219;-61
2024/03/28 13:22:49;;;;;;;1.80;0.60;;;;;;;13.40;62.05;97139.48;448214;1239;138655;-61
2024/03/28 13:32:52;;;;;;;0.80;0.70;;;;;;;13.39;63.59;97152.23;448526;1239;138571;-62
2024/03/28 13:42:55;;;;;;;7.40;1.90;;;;;;;13.74;63.50;97176.53;447753;1239;138787;-61
2024/03/28 13:52:59;;;;;;;3.80;1.70;;;;;;;13.61;63.41;97190.61;447684;1239;139366;-65
2024/03/28 14:03:03;;;;;;;2.20;0.80;;;;;;;13.43;63.90;97199.73;447859;1239;138646;-61
2024/03/28 14:13:07;;;;;;;1.60;1.40;;;;;;;13.37;63.91;97216.27;448182;1239;138754;-60
2024/03/28 14:23:11;;;;;;;1.80;1.50;;;;;;;13.33;64.18;97218.29;448047;1239;138220;-70
2024/03/28 14:33:15;;;;;;;2.40;1.20;;;;;;;13.35;63.54;97224.45;449223;1239;138637;-64
2024/03/28 14:43:18;;;;;;;2.70;1.00;;;;;;;13.27;63.16;97237.01;448530;1239;138546;-67
2024/03/28 14:53:21;;;;;;;0.80;0.80;;;;;;;13.13;63.12;97245.11;447910;1236;139257;-56
2024/03/28 15:03:25;;;;;;;2.30;0.90;;;;;;;12.93;63.14;97257.84;448674;1239;138368;-60
2024/03/28 15:13:28;;;;;;;2.20;0.90;;;;;;;12.64;63.32;97272.36;448012;1239;138266;-63
2024/03/28 15:23:33;;;;;;;2.10;1.20;;;;;;;12.52;63.82;97277.55;448179;1239;138645;-65
2024/03/28 15:33:36;;;;;;;1.90;1.40;;;;;;;12.56;63.97;97268.20;447669;1239;139072;-60
2024/03/28 15:43:39;;;;;;;4.00;1.60;;;;;;;12.37;63.87;97260.73;449777;1241;138365;-69
2024/03/28 15:53:43;;;;;;;1.60;1.10;;;;;;;12.33;64.58;97256.08;449798;1239;138785;-63
2024/03/28 16:03:46;;;;;;;1.90;1.70;;;;;;;12.55;64.39;97257.77;461519;1239;138859;-61
2024/03/28 16:13:49;;;;;;;3.00;2.20;;;;;;;12.55;64.05;97273.53;449823;1240;138159;-64
2024/03/28 16:23:53;;;;;;;3.20;2.00;;;;;;;12.41;64.26;97294.71;461738;1235;139099;-67
2024/03/28 16:33:57;;;;;;;3.00;1.50;;;;;;;12.36;64.29;97314.42;461760;1236;138952;-62
2024/03/28 16:44:00;;;;;;;4.20;2.50;;;;;;;12.22;64.19;97331.95;461875;1238;138256;-62
2024/03/28 16:54:06;;;;;;;2.50;1.80;;;;;;;11.92;64.08;97339.14;450087;1239;139162;-59
2024/03/28 17:04:10;;;;;;;11.10;3.60;;;;;;;11.50;64.04;97347.00;447879;1239;138629;-60
2024/03/28 17:14:13;;;;;;;9.20;4.30;;;;;;;11.05;64.29;97368.20;454914;1235;138974;-61
2024/03/28 17:24:19;;;;;;;12.00;4.00;;;;;;;10.58;64.70;97384.20;448366;1240;138264;-59
2024/03/28 17:34:22;;;;;;;10.80;4.90;;;;;;;10.11;65.54;97398.19;448130;1240;138450;-60
2024/03/28 17:44:27;;;;;;;9.30;5.20;;;;;;;9.70;66.12;97416.60;447317;1238;138734;-61
2024/03/28 17:54:31;;;;;;;9.90;5.70;;;;;;;9.33;66.74;97420.20;447410;1235;139079;-59
2024/03/28 18:04:40;;;;;;;22.80;10.60;;;;;;;9.14;67.70;97423.79;447317;1235;138643;-60
2024/03/28 18:14:43;;;;;;;16.80;12.20;;;;;;;9.02;68.08;97439.99;447601;1239;139374;-60
2024/03/28 18:24:47;;;;;;;14.90;9.40;;;;;;;8.92;68.69;97445.27;447189;1239;139761;-62
2024/03/28 18:34:53;;;;;;;15.10;9.10;;;;;;;8.70;69.06;97442.02;448065;1240;139401;-60
2024/03/28 18:44:58;;;;;;;17.10;11.50;;;;;;;8.47;69.69;97450.48;448751;1239;137938;-60
2024/03/28 18:55:02;;;;;;;15.40;9.50;;;;;;;8.34;70.57;97460.23;447445;1240;139183;-58
2024/03/28 19:05:06;;;;;;;23.90;11.70;;;;;;;8.23;71.28;97463.20;447282;1240;139495;-59
2024/03/28 19:15:11;;;;;;;24.90;12.70;;;;;;;8.13;72.20;97472.13;447615;1239;139393;-57
2024/03/28 19:25:16;;;;;;;34.30;21.80;;;;;;;8.15;72.90;97482.71;449060;1235;138852;-60
2024/03/28 19:35:21;;;;;;;31.60;19.40;;;;;;;8.31;73.36;97494.06;447276;1235;139533;-62
2024/03/28 19:45:25;;;;;;;25.00;17.20;;;;;;;8.54;73.45;97490.58;447596;1235;140909;-57
2024/03/28 19:55:28;;;;;;;28.70;15.80;;;;;;;8.67;73.54;97496.73;449282;1238;139176;-58
2024/03/28 20:05:32;;;;;;;29.80;18.30;;;;;;;8.72;73.68;97503.43;448369;1236;139605;-61
2024/03/28 20:15:35;;;;;;;27.50;19.10;;;;;;;8.70;74.04;97513.20;448347;1236;140279;-62
2024/03/28 20:25:39;;;;;;;35.10;23.10;;;;;;;8.73;74.21;97517.48;447518;1236;139063;-60
2024/03/28 20:35:42;;;;;;;25.80;19.70;;;;;;;8.80;74.30;97528.88;447026;1239;139661;-57
2024/03/28 20:45:46;;;;;;;13.00;8.40;;;;;;;8.85;73.76;97546.95;451738;1239;139888;-65
2024/03/28 20:55:51;;;;;;;7.60;5.10;;;;;;;9.02;72.76;97555.34;448020;1235;139371;-68
2024/03/28 21:06:01;;;;;;;7.20;4.40;;;;;;;9.21;71.24;97570.66;447692;1236;139608;-61
2024/03/28 21:16:06;;;;;;;5.60;4.50;;;;;;;9.40;70.16;97578.84;447638;1235;139259;-60
2024/03/28 21:26:09;;;;;;;4.30;2.90;;;;;;;9.58;69.48;97576.67;453295;1235;139153;-59
2024/03/28 21:36:15;;;;;;;2.90;2.10;;;;;;;9.71;68.57;97595.27;447079;1239;139104;-58
2024/03/28 21:46:18;;;;;;;3.10;1.70;;;;;;;9.77;67.71;97607.29;447554;1235;139266;-64
2024/03/28 21:56:21;;;;;;;4.40;2.70;;;;;;;9.80;67.17;97598.77;447205;1239;139368;-62
2024/03/28 22:06:25;;;;;;;3.70;2.10;;;;;;;9.78;66.88;97604.23;448266;1239;138778;-62
2024/03/28 22:16:28;;;;;;;3.10;1.90;;;;;;;9.72;66.39;97610.20;448657;1236;139238;-62
2024/03/28 22:26:33;;;;;;;4.00;1.90;;;;;;;9.66;66.38;97636.91;447156;1235;139169;-60
2024/03/28 22:36:37;;;;;;;4.70;1.70;;;;;;;9.58;66.16;97662.85;447029;1239;139525;-62
2024/03/28 22:46:41;;;;;;;3.90;1.70;;;;;;;9.50;66.19;97692.39;447246;1235;139236;-58
2024/03/28 22:56:44;;;;;;;2.10;1.10;;;;;;;9.44;66.16;97713.02;447652;1239;138622;-61
2024/03/28 23:06:47;;;;;;;3.30;1.60;;;;;;;9.45;66.03;97739.13;447157;1239;139352;-62
2024/03/28 23:16:52;;;;;;;2.80;1.60;;;;;;;9.42;65.91;97763.98;447171;1239;138711;-58
2024/03/28 23:26:56;;;;;;;1.40;1.00;;;;;;;9.42;65.94;97785.83;448639;1235;138911;-59
2024/03/28 23:37:02;;;;;;;3.90;1.60;;;;;;;9.38;65.83;97799.05;448385;1235;139430;-58
2024/03/28 23:47:06;;;;;;;2.00;1.00;;;;;;;9.34;65.97;97818.09;447763;1239;138998;-59
2024/03/28 23:57:11;;;;;;;1.80;1.30;;;;;;;9.33;65.97;97819.44;447764;1235;138973;-60
